sensor_id;sensor_type;location;lat;lon;timestamp;P1;durP1;ratioP1;P2;durP2;ratioP2
39778;SDS011;25454;49.878;8.618;2022-09-16T00:02:52;4.43;;;1.83;;
39778;SDS011;25454;49.878;8.618;2022-09-16T00:07:54;7.30;;;2.00;;
39778;SDS011;25454;49.878;8.618;2022-09-16T00:12:55;3.23;;;1.70;;
39778;SDS011;25454;49.878;8.618;2022-09-16T00:17:55;4.53;;;2.00;;
39778;SDS011;25454;49.878;8.618;2022-09-16T00:22:56;6.17;;;2.17;;
39778;SDS011;25454;49.878;8.618;2022-09-16T00:27:56;2.67;;;1.60;;
39778;SDS011;25454;49.878;8.618;2022-09-16T00:32:57;2.83;;;1.70;;
39778;SDS011;25454;49.878;8.618;2022-09-16T00:37:58;5.50;;;1.60;;
39778;SDS011;25454;49.878;8.618;2022-09-16T00:42:58;5.03;;;1.77;;
39778;SDS011;25454;49.878;8.618;2022-09-16T00:48:03;4.17;;;1.87;;
39778;SDS011;25454;49.878;8.618;2022-09-16T00:53:07;3.60;;;1.63;;
39778;SDS011;25454;49.878;8.618;2022-09-16T01:03:15;5.30;;;2.70;;
39778;SDS011;25454;49.878;8.618;2022-09-16T01:08:16;3.97;;;1.60;;
39778;SDS011;25454;49.878;8.618;2022-09-16T01:13:17;4.47;;;1.60;;
39778;SDS011;25454;49.878;8.618;2022-09-16T01:34:23;9.20;;;1.83;;
39778;SDS011;25454;49.878;8.618;2022-09-16T01:39:47;3.40;;;1.40;;
39778;SDS011;25454;49.878;8.618;2022-09-16T01:44:59;6.20;;;1.97;;
39778;SDS011;25454;49.878;8.618;2022-09-16T01:50:21;4.40;;;1.53;;
39778;SDS011;25454;49.878;8.618;2022-09-16T01:55:35;3.53;;;1.40;;
39778;SDS011;25454;49.878;8.618;2022-09-16T02:00:40;4.77;;;1.53;;
39778;SDS011;25454;49.878;8.618;2022-09-16T02:10:51;6.93;;;2.03;;
39778;SDS011;25454;49.878;8.618;2022-09-16T02:15:58;5.63;;;1.40;;
39778;SDS011;25454;49.878;8.618;2022-09-16T02:21:03;4.00;;;1.50;;
39778;SDS011;25454;49.878;8.618;2022-09-16T02:26:07;3.43;;;1.10;;
39778;SDS011;25454;49.878;8.618;2022-09-16T02:31:10;3.27;;;1.50;;
39778;SDS011;25454;49.878;8.618;2022-09-16T02:36:15;4.00;;;1.40;;
39778;SDS011;25454;49.878;8.618;2022-09-16T02:41:19;3.17;;;1.30;;
39778;SDS011;25454;49.878;8.618;2022-09-16T02:46:32;5.27;;;1.20;;
39778;SDS011;25454;49.878;8.618;2022-09-16T02:56:49;6.07;;;1.30;;
39778;SDS011;25454;49.878;8.618;2022-09-16T03:01:50;6.50;;;1.70;;
39778;SDS011;25454;49.878;8.618;2022-09-16T03:06:51;5.07;;;1.37;;
39778;SDS011;25454;49.878;8.618;2022-09-16T03:12:12;3.00;;;1.40;;
39778;SDS011;25454;49.878;8.618;2022-09-16T03:17:49;9.00;;;1.80;;
39778;SDS011;25454;49.878;8.618;2022-09-16T03:28:20;5.17;;;1.50;;
39778;SDS011;25454;49.878;8.618;2022-09-16T03:33:26;6.77;;;2.03;;
39778;SDS011;25454;49.878;8.618;2022-09-16T03:38:36;4.13;;;1.43;;
39778;SDS011;25454;49.878;8.618;2022-09-16T03:43:38;4.33;;;1.63;;
39778;SDS011;25454;49.878;8.618;2022-09-16T03:48:39;3.00;;;1.60;;
39778;SDS011;25454;49.878;8.618;2022-09-16T03:53:40;5.87;;;1.73;;
39778;SDS011;25454;49.878;8.618;2022-09-16T03:58:40;4.00;;;1.43;;
39778;SDS011;25454;49.878;8.618;2022-09-16T04:03:41;4.10;;;1.73;;
39778;SDS011;25454;49.878;8.618;2022-09-16T04:08:41;4.30;;;1.57;;
39778;SDS011;25454;49.878;8.618;2022-09-16T04:13:44;5.47;;;1.70;;
39778;SDS011;25454;49.878;8.618;2022-09-16T04:18:44;4.80;;;1.60;;
39778;SDS011;25454;49.878;8.618;2022-09-16T04:23:45;3.33;;;1.23;;
39778;SDS011;25454;49.878;8.618;2022-09-16T04:28:45;7.60;;;1.43;;
39778;SDS011;25454;49.878;8.618;2022-09-16T04:33:47;5.27;;;1.53;;
39778;SDS011;25454;49.878;8.618;2022-09-16T04:38:48;4.77;;;1.33;;
39778;SDS011;25454;49.878;8.618;2022-09-16T04:43:52;3.30;;;1.50;;
39778;SDS011;25454;49.878;8.618;2022-09-16T04:48:57;2.43;;;1.50;;
39778;SDS011;25454;49.878;8.618;2022-09-16T04:53:59;4.73;;;1.43;;
39778;SDS011;25454;49.878;8.618;2022-09-16T04:59:01;5.10;;;2.00;;
39778;SDS011;25454;49.878;8.618;2022-09-16T05:04:04;2.73;;;1.90;;
39778;SDS011;25454;49.878;8.618;2022-09-16T05:09:06;5.83;;;1.97;;
39778;SDS011;25454;49.878;8.618;2022-09-16T05:14:11;4.50;;;1.53;;
39778;SDS011;25454;49.878;8.618;2022-09-16T05:19:15;4.97;;;1.30;;
39778;SDS011;25454;49.878;8.618;2022-09-16T05:24:16;7.87;;;2.00;;
39778;SDS011;25454;49.878;8.618;2022-09-16T05:29:17;5.40;;;2.23;;
39778;SDS011;25454;49.878;8.618;2022-09-16T05:34:18;5.37;;;2.07;;
39778;SDS011;25454;49.878;8.618;2022-09-16T05:39:21;6.03;;;2.13;;
39778;SDS011;25454;49.878;8.618;2022-09-16T05:44:22;3.97;;;1.57;;
39778;SDS011;25454;49.878;8.618;2022-09-16T05:49:24;4.73;;;2.20;;
39778;SDS011;25454;49.878;8.618;2022-09-16T05:54:24;6.47;;;2.10;;
39778;SDS011;25454;49.878;8.618;2022-09-16T05:59:25;4.23;;;1.80;;
39778;SDS011;25454;49.878;8.618;2022-09-16T06:04:25;7.57;;;2.07;;
39778;SDS011;25454;49.878;8.618;2022-09-16T06:09:28;9.23;;;1.87;;
39778;SDS011;25454;49.878;8.618;2022-09-16T06:14:29;5.00;;;2.20;;
39778;SDS011;25454;49.878;8.618;2022-09-16T06:19:30;5.47;;;2.30;;
39778;SDS011;25454;49.878;8.618;2022-09-16T06:24:30;4.70;;;2.00;;
39778;SDS011;25454;49.878;8.618;2022-09-16T06:29:31;6.30;;;2.23;;
39778;SDS011;25454;49.878;8.618;2022-09-16T06:34:31;4.77;;;1.87;;
39778;SDS011;25454;49.878;8.618;2022-09-16T06:39:32;2.63;;;1.60;;
39778;SDS011;25454;49.878;8.618;2022-09-16T06:44:33;4.30;;;1.87;;
39778;SDS011;25454;49.878;8.618;2022-09-16T06:49:33;4.43;;;2.07;;
39778;SDS011;25454;49.878;8.618;2022-09-16T06:54:34;1.67;;;1.30;;
39778;SDS011;25454;49.878;8.618;2022-09-16T06:59:35;7.33;;;1.50;;
39778;SDS011;25454;49.878;8.618;2022-09-16T07:04:35;8.07;;;1.80;;
39778;SDS011;25454;49.878;8.618;2022-09-16T07:09:36;4.17;;;1.50;;
39778;SDS011;25454;49.878;8.618;2022-09-16T07:14:40;6.33;;;1.30;;
39778;SDS011;25454;49.878;8.618;2022-09-16T07:19:40;4.20;;;1.40;;
39778;SDS011;25454;49.878;8.618;2022-09-16T07:24:41;4.27;;;1.40;;
39778;SDS011;25454;49.878;8.618;2022-09-16T07:29:42;2.53;;;1.13;;
39778;SDS011;25454;49.878;8.618;2022-09-16T07:34:42;6.20;;;2.50;;
39778;SDS011;25454;49.878;8.618;2022-09-16T07:39:46;3.53;;;1.30;;
39778;SDS011;25454;49.878;8.618;2022-09-16T07:44:47;4.67;;;1.40;;
39778;SDS011;25454;49.878;8.618;2022-09-16T07:49:50;4.30;;;1.70;;
39778;SDS011;25454;49.878;8.618;2022-09-16T07:54:55;5.30;;;2.27;;
39778;SDS011;25454;49.878;8.618;2022-09-16T07:59:55;4.23;;;1.60;;
39778;SDS011;25454;49.878;8.618;2022-09-16T08:04:56;4.20;;;1.50;;
39778;SDS011;25454;49.878;8.618;2022-09-16T08:09:57;7.47;;;1.33;;
39778;SDS011;25454;49.878;8.618;2022-09-16T08:14:58;5.83;;;1.60;;
39778;SDS011;25454;49.878;8.618;2022-09-16T08:19:59;10.93;;;1.83;;
39778;SDS011;25454;49.878;8.618;2022-09-16T08:24:59;4.43;;;1.60;;
39778;SDS011;25454;49.878;8.618;2022-09-16T08:30:00;5.33;;;1.50;;
39778;SDS011;25454;49.878;8.618;2022-09-16T08:35:01;2.80;;;1.33;;
39778;SDS011;25454;49.878;8.618;2022-09-16T08:40:02;6.73;;;1.27;;
39778;SDS011;25454;49.878;8.618;2022-09-16T08:50:52;3.77;;;1.40;;
39778;SDS011;25454;49.878;8.618;2022-09-16T08:55:47;4.53;;;1.57;;
39778;SDS011;25454;49.878;8.618;2022-09-16T09:00:57;5.00;;;1.80;;
39778;SDS011;25454;49.878;8.618;2022-09-16T09:06:03;7.60;;;1.57;;
39778;SDS011;25454;49.878;8.618;2022-09-16T09:11:29;5.17;;;1.50;;
39778;SDS011;25454;49.878;8.618;2022-09-16T09:17:02;2.27;;;1.50;;
39778;SDS011;25454;49.878;8.618;2022-09-16T09:27:30;3.07;;;1.07;;
39778;SDS011;25454;49.878;8.618;2022-09-16T09:33:03;4.90;;;1.87;;
39778;SDS011;25454;49.878;8.618;2022-09-16T09:38:11;3.60;;;1.23;;
39778;SDS011;25454;49.878;8.618;2022-09-16T09:49:10;4.03;;;1.40;;
39778;SDS011;25454;49.878;8.618;2022-09-16T09:59:36;3.27;;;1.10;;
39778;SDS011;25454;49.878;8.618;2022-09-16T10:04:38;1.77;;;1.00;;
39778;SDS011;25454;49.878;8.618;2022-09-16T10:09:58;5.20;;;1.03;;
39778;SDS011;25454;49.878;8.618;2022-09-16T10:15:26;7.80;;;1.50;;
39778;SDS011;25454;49.878;8.618;2022-09-16T10:20:33;5.87;;;1.13;;
39778;SDS011;25454;49.878;8.618;2022-09-16T10:25:38;4.27;;;1.43;;
39778;SDS011;25454;49.878;8.618;2022-09-16T10:30:53;8.93;;;1.47;;
39778;SDS011;25454;49.878;8.618;2022-09-16T10:35:58;6.27;;;1.17;;
39778;SDS011;25454;49.878;8.618;2022-09-16T10:41:14;4.57;;;1.20;;
39778;SDS011;25454;49.878;8.618;2022-09-16T10:46:16;2.20;;;1.10;;
39778;SDS011;25454;49.878;8.618;2022-09-16T10:51:27;2.50;;;0.90;;
39778;SDS011;25454;49.878;8.618;2022-09-16T10:56:33;7.83;;;2.57;;
39778;SDS011;25454;49.878;8.618;2022-09-16T11:12:51;2.47;;;0.90;;
39778;SDS011;25454;49.878;8.618;2022-09-16T11:28:57;1.57;;;0.90;;
39778;SDS011;25454;49.878;8.618;2022-09-16T11:44:48;4.93;;;1.03;;
39778;SDS011;25454;49.878;8.618;2022-09-16T12:00:16;2.90;;;0.70;;
39778;SDS011;25454;49.878;8.618;2022-09-16T12:05:26;3.13;;;0.97;;
39778;SDS011;25454;49.878;8.618;2022-09-16T12:10:36;3.43;;;0.90;;
39778;SDS011;25454;49.878;8.618;2022-09-16T12:16:04;4.37;;;1.57;;
39778;SDS011;25454;49.878;8.618;2022-09-16T12:26:46;4.20;;;1.00;;
39778;SDS011;25454;49.878;8.618;2022-09-16T12:32:04;2.87;;;1.17;;
39778;SDS011;25454;49.878;8.618;2022-09-16T12:47:51;4.20;;;1.37;;
39778;SDS011;25454;49.878;8.618;2022-09-16T12:58:23;2.40;;;0.90;;
39778;SDS011;25454;49.878;8.618;2022-09-16T13:03:35;1.43;;;0.80;;
39778;SDS011;25454;49.878;8.618;2022-09-16T13:08:38;4.23;;;0.63;;
39778;SDS011;25454;49.878;8.618;2022-09-16T13:13:41;2.17;;;0.60;;
39778;SDS011;25454;49.878;8.618;2022-09-16T13:19:04;1.50;;;0.50;;
39778;SDS011;25454;49.878;8.618;2022-09-16T13:24:40;2.40;;;0.70;;
39778;SDS011;25454;49.878;8.618;2022-09-16T13:29:44;0.63;;;0.60;;
39778;SDS011;25454;49.878;8.618;2022-09-16T13:34:45;1.30;;;0.80;;
39778;SDS011;25454;49.878;8.618;2022-09-16T13:39:45;2.10;;;0.60;;
39778;SDS011;25454;49.878;8.618;2022-09-16T13:44:46;2.90;;;0.70;;
39778;SDS011;25454;49.878;8.618;2022-09-16T13:55:00;1.17;;;0.63;;
39778;SDS011;25454;49.878;8.618;2022-09-16T14:00:12;4.17;;;0.80;;
39778;SDS011;25454;49.878;8.618;2022-09-16T14:15:59;1.17;;;0.60;;
39778;SDS011;25454;49.878;8.618;2022-09-16T14:21:16;1.83;;;0.60;;
39778;SDS011;25454;49.878;8.618;2022-09-16T14:26:21;1.03;;;0.40;;
39778;SDS011;25454;49.878;8.618;2022-09-16T14:31:24;0.43;;;0.30;;
39778;SDS011;25454;49.878;8.618;2022-09-16T14:36:33;1.17;;;0.40;;
39778;SDS011;25454;49.878;8.618;2022-09-16T14:41:49;0.53;;;0.33;;
39778;SDS011;25454;49.878;8.618;2022-09-16T14:46:59;2.10;;;0.50;;
39778;SDS011;25454;49.878;8.618;2022-09-16T14:52:12;0.90;;;0.50;;
39778;SDS011;25454;49.878;8.618;2022-09-16T14:57:20;0.47;;;0.30;;
39778;SDS011;25454;49.878;8.618;2022-09-16T15:07:43;1.30;;;0.47;;
39778;SDS011;25454;49.878;8.618;2022-09-16T15:12:45;1.63;;;0.60;;
39778;SDS011;25454;49.878;8.618;2022-09-16T15:17:56;1.40;;;0.37;;
39778;SDS011;25454;49.878;8.618;2022-09-16T15:22:57;1.63;;;0.50;;
39778;SDS011;25454;49.878;8.618;2022-09-16T15:28:05;2.20;;;0.50;;
39778;SDS011;25454;49.878;8.618;2022-09-16T15:33:21;1.33;;;0.70;;
39778;SDS011;25454;49.878;8.618;2022-09-16T15:38:24;0.63;;;0.40;;
39778;SDS011;25454;49.878;8.618;2022-09-16T15:43:27;0.40;;;0.30;;
39778;SDS011;25454;49.878;8.618;2022-09-16T15:48:35;1.07;;;0.47;;
39778;SDS011;25454;49.878;8.618;2022-09-16T15:53:42;0.80;;;0.40;;
39778;SDS011;25454;49.878;8.618;2022-09-16T15:58:45;3.97;;;1.67;;
39778;SDS011;25454;49.878;8.618;2022-09-16T16:04:00;1.27;;;0.50;;
39778;SDS011;25454;49.878;8.618;2022-09-16T16:09:01;0.87;;;0.30;;
39778;SDS011;25454;49.878;8.618;2022-09-16T16:14:02;1.30;;;0.30;;
39778;SDS011;25454;49.878;8.618;2022-09-16T16:19:06;0.77;;;0.40;;
39778;SDS011;25454;49.878;8.618;2022-09-16T16:24:13;0.30;;;0.20;;
39778;SDS011;25454;49.878;8.618;2022-09-16T16:29:14;0.67;;;0.60;;
39778;SDS011;25454;49.878;8.618;2022-09-16T16:34:14;0.80;;;0.40;;
39778;SDS011;25454;49.878;8.618;2022-09-16T16:39:15;1.70;;;0.43;;
39778;SDS011;25454;49.878;8.618;2022-09-16T16:44:19;1.23;;;0.60;;
39778;SDS011;25454;49.878;8.618;2022-09-16T16:49:21;1.37;;;0.37;;
39778;SDS011;25454;49.878;8.618;2022-09-16T16:54:23;1.60;;;0.33;;
39778;SDS011;25454;49.878;8.618;2022-09-16T16:59:24;0.40;;;0.40;;
39778;SDS011;25454;49.878;8.618;2022-09-16T17:04:29;1.13;;;0.70;;
39778;SDS011;25454;49.878;8.618;2022-09-16T17:09:29;1.03;;;0.70;;
39778;SDS011;25454;49.878;8.618;2022-09-16T17:14:30;2.10;;;0.70;;
39778;SDS011;25454;49.878;8.618;2022-09-16T17:19:32;1.87;;;0.80;;
39778;SDS011;25454;49.878;8.618;2022-09-16T17:24:32;2.13;;;1.20;;
39778;SDS011;25454;49.878;8.618;2022-09-16T17:29:33;3.10;;;0.70;;
39778;SDS011;25454;49.878;8.618;2022-09-16T17:34:34;2.50;;;0.80;;
39778;SDS011;25454;49.878;8.618;2022-09-16T17:39:34;0.50;;;0.50;;
39778;SDS011;25454;49.878;8.618;2022-09-16T17:44:36;1.27;;;0.63;;
39778;SDS011;25454;49.878;8.618;2022-09-16T17:49:38;1.77;;;0.90;;
39778;SDS011;25454;49.878;8.618;2022-09-16T17:54:39;2.30;;;0.87;;
39778;SDS011;25454;49.878;8.618;2022-09-16T17:59:40;3.13;;;1.50;;
39778;SDS011;25454;49.878;8.618;2022-09-16T18:04:41;2.50;;;0.80;;
39778;SDS011;25454;49.878;8.618;2022-09-16T18:09:42;1.57;;;1.00;;
39778;SDS011;25454;49.878;8.618;2022-09-16T18:14:42;1.27;;;0.90;;
39778;SDS011;25454;49.878;8.618;2022-09-16T18:19:43;1.13;;;0.90;;
39778;SDS011;25454;49.878;8.618;2022-09-16T18:24:44;5.63;;;0.90;;
39778;SDS011;25454;49.878;8.618;2022-09-16T18:29:46;2.60;;;0.93;;
39778;SDS011;25454;49.878;8.618;2022-09-16T18:34:47;1.97;;;1.20;;
39778;SDS011;25454;49.878;8.618;2022-09-16T18:39:47;2.80;;;1.03;;
39778;SDS011;25454;49.878;8.618;2022-09-16T18:44:48;3.60;;;1.67;;
39778;SDS011;25454;49.878;8.618;2022-09-16T18:49:49;3.60;;;1.10;;
39778;SDS011;25454;49.878;8.618;2022-09-16T18:54:49;1.83;;;0.90;;
39778;SDS011;25454;49.878;8.618;2022-09-16T18:59:50;1.73;;;1.10;;
39778;SDS011;25454;49.878;8.618;2022-09-16T19:04:50;3.17;;;1.10;;
39778;SDS011;25454;49.878;8.618;2022-09-16T19:09:54;2.90;;;1.17;;
39778;SDS011;25454;49.878;8.618;2022-09-16T19:14:58;4.03;;;0.80;;
39778;SDS011;25454;49.878;8.618;2022-09-16T19:19:59;1.83;;;0.90;;
39778;SDS011;25454;49.878;8.618;2022-09-16T19:24:59;1.60;;;0.80;;
39778;SDS011;25454;49.878;8.618;2022-09-16T19:30:03;2.00;;;1.00;;
39778;SDS011;25454;49.878;8.618;2022-09-16T19:35:04;1.63;;;1.10;;
39778;SDS011;25454;49.878;8.618;2022-09-16T19:40:05;2.07;;;1.30;;
39778;SDS011;25454;49.878;8.618;2022-09-16T19:45:06;3.20;;;1.40;;
39778;SDS011;25454;49.878;8.618;2022-09-16T19:50:06;2.63;;;1.23;;
39778;SDS011;25454;49.878;8.618;2022-09-16T19:55:07;1.50;;;0.90;;
39778;SDS011;25454;49.878;8.618;2022-09-16T20:00:11;1.70;;;1.00;;
39778;SDS011;25454;49.878;8.618;2022-09-16T20:05:13;1.43;;;1.10;;
39778;SDS011;25454;49.878;8.618;2022-09-16T20:10:14;3.03;;;1.30;;
39778;SDS011;25454;49.878;8.618;2022-09-16T20:15:15;1.53;;;1.03;;
39778;SDS011;25454;49.878;8.618;2022-09-16T20:20:16;2.83;;;1.27;;
39778;SDS011;25454;49.878;8.618;2022-09-16T20:25:20;1.17;;;0.80;;
39778;SDS011;25454;49.878;8.618;2022-09-16T20:30:20;2.67;;;0.90;;
39778;SDS011;25454;49.878;8.618;2022-09-16T20:35:21;2.83;;;1.13;;
39778;SDS011;25454;49.878;8.618;2022-09-16T20:40:22;2.07;;;1.40;;
39778;SDS011;25454;49.878;8.618;2022-09-16T20:45:22;0.80;;;0.80;;
39778;SDS011;25454;49.878;8.618;2022-09-16T20:50:23;3.13;;;1.10;;
39778;SDS011;25454;49.878;8.618;2022-09-16T20:55:23;2.87;;;1.00;;
39778;SDS011;25454;49.878;8.618;2022-09-16T21:00:25;1.17;;;0.80;;
39778;SDS011;25454;49.878;8.618;2022-09-16T21:05:25;2.60;;;0.90;;
39778;SDS011;25454;49.878;8.618;2022-09-16T21:10:26;0.93;;;0.90;;
39778;SDS011;25454;49.878;8.618;2022-09-16T21:15:27;2.43;;;1.00;;
39778;SDS011;25454;49.878;8.618;2022-09-16T21:20:29;1.70;;;0.70;;
39778;SDS011;25454;49.878;8.618;2022-09-16T21:25:29;1.80;;;0.93;;
39778;SDS011;25454;49.878;8.618;2022-09-16T21:30:31;1.90;;;0.67;;
39778;SDS011;25454;49.878;8.618;2022-09-16T21:35:32;0.73;;;0.60;;
39778;SDS011;25454;49.878;8.618;2022-09-16T21:40:35;0.80;;;0.70;;
39778;SDS011;25454;49.878;8.618;2022-09-16T21:45:41;2.73;;;1.03;;
39778;SDS011;25454;49.878;8.618;2022-09-16T21:50:43;2.77;;;1.57;;
39778;SDS011;25454;49.878;8.618;2022-09-16T21:55:45;1.60;;;0.70;;
39778;SDS011;25454;49.878;8.618;2022-09-16T22:00:46;1.00;;;0.70;;
39778;SDS011;25454;49.878;8.618;2022-09-16T22:05:47;4.53;;;1.10;;
39778;SDS011;25454;49.878;8.618;2022-09-16T22:10:47;1.33;;;0.70;;
39778;SDS011;25454;49.878;8.618;2022-09-16T22:15:51;2.03;;;1.53;;
39778;SDS011;25454;49.878;8.618;2022-09-16T22:20:51;1.20;;;0.90;;
39778;SDS011;25454;49.878;8.618;2022-09-16T22:25:53;2.00;;;0.80;;
39778;SDS011;25454;49.878;8.618;2022-09-16T22:31:03;5.03;;;0.90;;
39778;SDS011;25454;49.878;8.618;2022-09-16T22:36:17;1.77;;;0.73;;
39778;SDS011;25454;49.878;8.618;2022-09-16T22:41:20;4.17;;;0.93;;
39778;SDS011;25454;49.878;8.618;2022-09-16T22:46:23;1.80;;;0.83;;
39778;SDS011;25454;49.878;8.618;2022-09-16T22:51:26;1.43;;;0.70;;
39778;SDS011;25454;49.878;8.618;2022-09-16T22:56:28;1.67;;;0.90;;
39778;SDS011;25454;49.878;8.618;2022-09-16T23:01:33;1.37;;;0.90;;
39778;SDS011;25454;49.878;8.618;2022-09-16T23:06:37;1.93;;;0.63;;
39778;SDS011;25454;49.878;8.618;2022-09-16T23:11:38;2.77;;;0.90;;
39778;SDS011;25454;49.878;8.618;2022-09-16T23:16:39;1.53;;;0.97;;
39778;SDS011;25454;49.878;8.618;2022-09-16T23:21:40;2.47;;;1.00;;
39778;SDS011;25454;49.878;8.618;2022-09-16T23:26:40;2.03;;;0.90;;
39778;SDS011;25454;49.878;8.618;2022-09-16T23:31:42;1.43;;;1.00;;
39778;SDS011;25454;49.878;8.618;2022-09-16T23:36:43;3.70;;;1.00;;
39778;SDS011;25454;49.878;8.618;2022-09-16T23:41:44;2.30;;;1.07;;
39778;SDS011;25454;49.878;8.618;2022-09-16T23:46:45;4.00;;;0.80;;
39778;SDS011;25454;49.878;8.618;2022-09-16T23:51:46;1.97;;;0.90;;
39778;SDS011;25454;49.878;8.618;2022-09-16T23:56:46;2.47;;;1.00;;
